Time;durP1;ratioP1;P1;durP2;ratioP2;P2;SDS_P1;SDS_P2;PMS_P1;PMS_P2;Temp;Humidity;BMP_temperature;BMP_pressure;BME280_temperature;BME280_humidity;BME280_pressure;Samples;Min_cycle;Max_cycle;Signal;HPM_P1;HPM_P2
2022/01/14 00:02:14;;;;;;;35.75;12.07;;;-1.30;99.90;;;;;;5018347;28;20125;-85
2022/01/14 00:04:40;;;;;;;32.28;12.00;;;-1.30;99.90;;;;;;5027654;28;20041;-85
2022/01/14 00:07:06;;;;;;;35.30;11.50;;;-1.30;99.90;;;;;;5015758;28;20418;-86
2022/01/14 00:09:34;;;;;;;32.75;11.85;;;-1.30;99.90;;;;;;5017316;28;20098;-85
2022/01/14 00:12:03;;;;;;;29.13;11.70;;;-1.30;99.90;;;;;;5027970;28;20124;-84
2022/01/14 00:14:39;;;;;;;34.17;12.20;;;-1.30;99.90;;;;;;5013046;28;20030;-85
2022/01/14 00:17:07;;;;;;;29.83;10.00;;;-1.30;99.90;;;;;;5014494;28;20062;-86
2022/01/14 00:19:33;;;;;;;28.98;11.02;;;-1.20;99.90;;;;;;5023375;28;20544;-86
2022/01/14 00:22:04;;;;;;;31.33;10.85;;;-1.30;99.90;;;;;;5012091;28;20034;-86
2022/01/14 00:31:38;;;;;;;33.20;11.10;;;-1.20;99.90;;;;;;5027861;28;20061;-85
2022/01/14 00:35:24;;;;;;;28.95;10.50;;;-1.20;99.90;;;;;;5019628;28;20514;-85
2022/01/14 00:37:51;;;;;;;29.50;10.55;;;-1.20;99.90;;;;;;5026730;28;20033;-86
2022/01/14 00:40:17;;;;;;;29.50;11.02;;;-1.20;99.90;;;;;;5024585;28;20049;-86
2022/01/14 00:42:48;;;;;;;30.05;10.98;;;-1.20;99.90;;;;;;5008194;28;20023;-86
2022/01/14 00:45:17;;;;;;;;;;;-1.20;99.90;;;;;;5027176;28;20037;-86
2022/01/14 00:47:44;;;;;;;27.90;11.02;;;-1.20;99.90;;;;;;5018142;28;20483;-86
2022/01/14 00:50:14;;;;;;;30.05;9.63;;;-1.30;99.90;;;;;;5015895;28;20037;-86
2022/01/14 00:52:42;;;;;;;27.95;9.93;;;-1.30;99.90;;;;;;5004321;28;20120;-86
2022/01/14 00:55:12;;;;;;;28.08;10.77;;;-1.30;99.90;;;;;;5024464;28;20080;-86
2022/01/14 01:00:34;;;;;;;25.60;9.60;;;-1.30;99.90;;;;;;4991304;28;20101;-85
2022/01/14 01:03:02;;;;;;;27.27;9.85;;;-1.30;99.90;;;;;;5002394;28;20037;-86
2022/01/14 01:05:27;;;;;;;31.17;11.75;;;-1.20;99.90;;;;;;5030626;28;20045;-85
2022/01/14 01:10:25;;;;;;;25.67;9.60;;;-1.20;99.90;;;;;;5034512;28;20064;-88
2022/01/14 01:12:55;;;;;;;25.70;9.73;;;-1.20;99.90;;;;;;5013804;28;20038;-88
2022/01/14 01:15:21;;;;;;;27.67;9.80;;;-1.20;99.90;;;;;;5005306;28;20100;-86
2022/01/14 01:17:48;;;;;;;32.08;10.45;;;-1.30;99.90;;;;;;5027822;28;20499;-86
2022/01/14 01:20:18;;;;;;;27.27;10.30;;;-1.30;99.90;;;;;;5030454;28;20026;-87
2022/01/14 01:22:49;;;;;;;25.13;9.50;;;-1.30;99.90;;;;;;5015348;28;20121;-87
2022/01/14 01:25:19;;;;;;;27.33;9.60;;;-1.40;99.90;;;;;;5022798;28;20041;-88
2022/01/14 01:27:47;;;;;;;27.17;10.20;;;-1.40;99.90;;;;;;5017489;28;20084;-88
2022/01/14 01:30:48;;;;;;;27.42;9.38;;;-1.40;99.90;;;;;;5015719;28;20097;-88
2022/01/14 01:33:01;;;;;;;25.23;10.05;;;-1.50;99.90;;;;;;5033489;28;20025;-88
2022/01/14 01:35:27;;;;;;;34.75;10.32;;;-1.50;99.90;;;;;;5036299;28;20402;-88
2022/01/14 01:37:53;;;;;;;26.33;9.68;;;-1.50;99.90;;;;;;5036113;28;20030;-88
2022/01/14 01:40:22;;;;;;;26.95;9.77;;;-1.50;99.90;;;;;;5036257;28;20025;-88
2022/01/14 01:42:48;;;;;;;25.55;9.80;;;-1.50;99.90;;;;;;5020081;28;20033;-88
2022/01/14 01:45:20;;;;;;;25.73;9.80;;;-1.50;99.90;;;;;;5035388;28;20112;-88
2022/01/14 01:47:50;;;;;;;25.98;9.02;;;-1.50;99.90;;;;;;5035013;28;20030;-88
2022/01/14 01:50:19;;;;;;;23.33;8.85;;;-1.60;99.90;;;;;;5015339;28;20038;-88
2022/01/14 01:52:45;;;;;;;22.88;9.27;;;-1.60;99.90;;;;;;5016666;28;20056;-88
2022/01/14 01:55:12;;;;;;;30.27;10.32;;;-1.60;99.90;;;;;;5014384;28;20407;-88
2022/01/14 01:57:37;;;;;;;29.92;9.68;;;-1.60;99.90;;;;;;5031771;28;20057;-88
2022/01/14 02:00:07;;;;;;;29.50;10.55;;;-1.60;99.90;;;;;;5014703;28;20043;-89
2022/01/14 02:02:36;;;;;;;28.42;10.65;;;-1.60;99.90;;;;;;5018984;28;20046;-88
2022/01/14 02:05:03;;;;;;;34.75;12.07;;;-1.70;99.90;;;;;;5032277;28;20041;-88
2022/01/14 02:07:30;;;;;;;36.25;11.73;;;-1.70;99.90;;;;;;5015930;28;20145;-88
2022/01/14 02:09:56;;;;;;;30.98;11.25;;;-1.70;99.90;;;;;;5031426;28;20030;-88
2022/01/14 02:12:22;;;;;;;35.30;11.05;;;-1.70;99.90;;;;;;5013614;28;20034;-88
2022/01/14 02:15:09;;;;;;;31.92;11.27;;;-1.70;99.90;;;;;;5011795;28;20038;-88
2022/01/14 02:17:53;;;;;;;30.92;11.73;;;-1.70;99.90;;;;;;5006445;28;20107;-88
2022/01/14 02:23:06;;;;;;;29.10;10.77;;;-1.70;99.90;;;;;;5029775;28;20064;-88
2022/01/14 02:25:33;;;;;;;27.35;10.02;;;-1.70;99.90;;;;;;5012314;28;20068;-87
2022/01/14 02:28:13;;;;;;;30.30;10.68;;;-1.70;99.90;;;;;;5047304;28;20034;-88
2022/01/14 02:30:40;;;;;;;29.15;11.43;;;-1.70;99.90;;;;;;5030599;28;20029;-88
2022/01/14 02:33:08;;;;;;;33.38;10.43;;;-1.60;99.90;;;;;;4997133;28;20080;-88
2022/01/14 02:35:34;;;;;;;28.50;10.38;;;-1.70;99.90;;;;;;5024539;28;20072;-88
2022/01/14 02:38:00;;;;;;;27.42;10.77;;;-1.60;99.90;;;;;;5017668;28;20065;-88
2022/01/14 02:40:26;;;;;;;25.77;9.95;;;-1.60;99.90;;;;;;5014986;28;20064;-88
2022/01/14 02:42:54;;;;;;;28.88;9.63;;;-1.60;99.90;;;;;;5010161;28;20037;-88
2022/01/14 02:45:22;;;;;;;21.27;8.77;;;-1.60;99.90;;;;;;5023233;28;20038;-87
2022/01/14 02:47:47;;;;;;;22.30;8.63;;;-1.60;99.90;;;;;;5029829;28;20636;-88
2022/01/14 02:50:18;;;;;;;23.02;8.45;;;-1.60;99.90;;;;;;5005596;28;20395;-88
2022/01/14 02:55:21;;;;;;;23.38;8.80;;;-1.60;99.90;;;;;;5029482;28;20040;-87
2022/01/14 02:57:50;;;;;;;28.35;9.02;;;-1.60;99.90;;;;;;5014344;28;20060;-87
2022/01/14 03:00:19;;;;;;;22.73;10.07;;;-1.60;99.90;;;;;;5027577;28;20021;-88
2022/01/14 03:02:46;;;;;;;26.13;9.10;;;-1.60;99.90;;;;;;5042713;28;20056;-88
2022/01/14 03:05:12;;;;;;;25.52;8.98;;;-1.60;99.90;;;;;;5030928;28;20119;-87
2022/01/14 03:07:39;;;;;;;25.92;8.63;;;-1.60;99.90;;;;;;5022515;28;20022;-87
2022/01/14 03:10:07;;;;;;;22.63;8.60;;;-1.60;99.90;;;;;;4997812;28;20026;-88
2022/01/14 03:12:34;;;;;;;25.33;8.75;;;-1.70;99.90;;;;;;5012812;28;20072;-87
2022/01/14 03:14:59;;;;;;;21.73;8.35;;;-1.60;99.90;;;;;;5029190;28;20033;-87
2022/01/14 03:17:27;;;;;;;21.98;8.48;;;-1.70;99.90;;;;;;5009952;28;20499;-88
2022/01/14 03:19:53;;;;;;;30.08;8.77;;;-1.70;99.90;;;;;;5014002;28;20088;-88
2022/01/14 03:22:27;;;;;;;26.13;9.43;;;-1.70;99.90;;;;;;5022320;28;20041;-87
2022/01/14 03:27:19;;;;;;;23.05;8.82;;;-1.70;99.90;;;;;;5021192;28;20030;-88
2022/01/14 03:29:45;;;;;;;30.20;9.68;;;-1.70;99.90;;;;;;5000904;28;20034;-87
2022/01/14 03:32:11;;;;;;;23.15;9.40;;;-1.80;99.90;;;;;;5026496;28;20022;-87
2022/01/14 03:34:37;;;;;;;23.25;8.50;;;-1.70;99.90;;;;;;4995506;28;20038;-88
2022/01/14 03:37:04;;;;;;;19.50;7.90;;;-1.80;99.90;;;;;;5010237;28;20048;-87
2022/01/14 03:39:29;;;;;;;24.02;8.68;;;-1.80;99.90;;;;;;4996856;28;20506;-88
2022/01/14 03:41:55;;;;;;;20.30;8.63;;;-1.80;99.90;;;;;;5027593;28;20038;-87
2022/01/14 03:44:21;;;;;;;30.25;8.85;;;-1.90;99.90;;;;;;4994925;28;20030;-87
2022/01/14 03:46:46;;;;;;;26.45;10.38;;;-1.90;99.90;;;;;;5029078;28;20029;-87
2022/01/14 03:49:12;;;;;;;28.05;9.65;;;-1.90;99.90;;;;;;5012753;28;20422;-87
2022/01/14 03:51:39;;;;;;;22.20;9.18;;;-1.90;99.90;;;;;;5009321;28;20030;-87
2022/01/14 03:54:04;;;;;;;29.67;9.48;;;-1.90;99.90;;;;;;5028899;28;20136;-87
2022/01/14 03:56:31;;;;;;;24.05;9.43;;;-1.90;99.90;;;;;;5029016;28;20149;-87
2022/01/14 03:58:56;;;;;;;28.02;9.93;;;-1.80;99.90;;;;;;5020855;28;20037;-87
2022/01/14 04:01:22;;;;;;;23.38;8.77;;;-1.80;99.90;;;;;;4994630;28;20437;-87
2022/01/14 04:03:51;;;;;;;26.98;9.70;;;-1.80;99.90;;;;;;5029087;28;20449;-88
2022/01/14 04:06:17;;;;;;;23.70;8.63;;;-1.80;99.90;;;;;;5028406;28;20030;-87
2022/01/14 04:08:44;;;;;;;21.95;8.68;;;-1.80;99.90;;;;;;5028158;28;20067;-88
2022/01/14 04:11:10;;;;;;;17.88;6.82;;;-1.80;99.90;;;;;;5028841;28;20029;-86
2022/01/14 04:13:52;;;;;;;22.88;9.10;;;-1.80;99.90;;;;;;5004472;28;20037;-87
2022/01/14 04:16:19;;;;;;;21.17;7.85;;;-1.80;99.90;;;;;;5013534;28;20052;-87
2022/01/14 04:18:45;;;;;;;22.42;7.90;;;-1.80;99.90;;;;;;5015734;28;20049;-87
2022/01/14 04:21:11;;;;;;;22.67;7.45;;;-1.70;99.90;;;;;;5024082;28;20030;-87
2022/01/14 04:23:37;;;;;;;23.25;7.43;;;-1.80;99.90;;;;;;5012496;28;20053;-87
2022/01/14 04:26:06;;;;;;;23.60;7.85;;;-1.70;99.90;;;;;;5046001;23;20318;-83
2022/01/14 04:28:34;;;;;;;20.13;7.32;;;-1.70;99.90;;;;;;5011764;28;20504;-83
2022/01/14 04:31:01;;;;;;;21.25;7.85;;;-1.70;99.90;;;;;;5012296;28;20438;-83
2022/01/14 04:33:29;;;;;;;21.88;7.47;;;-1.70;99.90;;;;;;5013718;28;20033;-83
2022/01/14 04:35:59;;;;;;;22.15;8.38;;;-1.60;99.90;;;;;;4988258;28;20523;-83
2022/01/14 04:38:26;;;;;;;20.58;6.25;;;-1.60;99.90;;;;;;4976515;28;20069;-83
2022/01/14 04:40:52;;;;;;;16.55;6.47;;;-1.60;99.90;;;;;;4981762;28;20483;-83
2022/01/14 04:43:19;;;;;;;16.73;6.85;;;-1.60;99.90;;;;;;4999714;28;20056;-83
2022/01/14 04:46:12;;;;;;;18.33;7.20;;;-1.60;99.90;;;;;;5012896;28;20030;-83
2022/01/14 04:48:34;;;;;;;17.02;6.90;;;-1.60;99.90;;;;;;4997358;28;20084;-83
2022/01/14 04:51:01;;;;;;;12.85;5.93;;;-1.70;99.90;;;;;;4980134;28;20086;-83
2022/01/14 04:53:30;;;;;;;16.48;6.45;;;-1.70;99.90;;;;;;5013280;28;20045;-83
2022/01/14 04:55:56;;;;;;;19.00;6.35;;;-1.80;99.90;;;;;;4984919;28;20030;-83
2022/01/14 04:58:22;;;;;;;19.45;6.55;;;-1.80;99.90;;;;;;4981069;28;20153;-83
2022/01/14 05:00:48;;;;;;;17.50;7.20;;;-1.80;99.90;;;;;;4996575;28;20426;-83
2022/01/14 05:03:14;;;;;;;21.67;6.88;;;-1.80;99.90;;;;;;5014552;28;20034;-83
2022/01/14 05:05:43;;;;;;;15.32;6.40;;;-1.90;99.90;;;;;;4998962;28;20117;-83
2022/01/14 05:08:19;;;;;;;19.17;7.10;;;-1.90;99.90;;;;;;5016737;28;20125;-83
2022/01/14 05:13:20;;;;;;;22.90;8.18;;;-2.00;99.90;;;;;;5000715;28;20042;-83
2022/01/14 05:15:46;;;;;;;20.88;7.65;;;-2.00;99.90;;;;;;4998128;28;20050;-83
2022/01/14 05:18:12;;;;;;;20.15;7.53;;;-2.10;99.90;;;;;;5010203;28;20029;-83
2022/01/14 05:20:37;;;;;;;20.63;7.88;;;-2.10;99.90;;;;;;4983444;28;20045;-83
2022/01/14 05:23:03;;;;;;;18.20;7.45;;;-2.10;99.90;;;;;;5015253;28;20022;-83
2022/01/14 05:25:29;;;;;;;22.60;8.38;;;-2.10;99.90;;;;;;5012917;28;20034;-83
2022/01/14 05:27:58;;;;;;;23.13;8.55;;;-2.10;99.90;;;;;;4980072;28;20026;-83
2022/01/14 05:30:23;;;;;;;21.02;8.02;;;-2.10;99.90;;;;;;4982090;28;20037;-83
2022/01/14 05:32:52;;;;;;;23.98;9.25;;;-2.10;99.90;;;;;;4987443;28;20027;-83
2022/01/14 05:35:20;;;;;;;22.20;8.70;;;-2.10;99.90;;;;;;4980925;28;20421;-84
2022/01/14 05:37:46;;;;;;;20.63;9.13;;;-2.10;99.90;;;;;;4995095;28;20034;-83
2022/01/14 05:40:13;;;;;;;19.85;8.40;;;-2.10;99.90;;;;;;4995307;28;20031;-84
2022/01/14 05:42:40;;;;;;;22.35;7.80;;;-2.20;99.90;;;;;;4994012;28;20026;-83
2022/01/14 05:45:08;;;;;;;24.90;8.18;;;-2.20;99.90;;;;;;4979439;28;20129;-83
2022/01/14 05:47:34;;;;;;;25.38;9.07;;;-2.20;99.90;;;;;;4995353;28;20026;-83
2022/01/14 05:50:00;;;;;;;25.52;10.32;;;-2.20;99.90;;;;;;4981641;28;20026;-83
2022/01/14 05:52:26;;;;;;;30.80;9.48;;;-2.20;99.90;;;;;;5014624;28;20045;-83
2022/01/14 05:54:53;;;;;;;25.83;9.20;;;-2.20;99.90;;;;;;4981898;28;20438;-83
2022/01/14 05:57:20;;;;;;;18.45;7.88;;;-2.20;99.90;;;;;;4975346;28;20026;-83
2022/01/14 05:59:46;;;;;;;23.48;7.70;;;-2.20;99.90;;;;;;4997080;28;20045;-83
2022/01/14 06:02:11;;;;;;;21.83;9.02;;;-2.20;99.90;;;;;;5015755;28;20083;-83
2022/01/14 06:04:40;;;;;;;29.02;10.40;;;-2.20;99.90;;;;;;5015466;28;20117;-83
2022/01/14 06:07:06;;;;;;;28.85;10.73;;;-2.20;99.90;;;;;;4998038;28;20113;-83
2022/01/14 06:09:32;;;;;;;27.48;11.00;;;-2.20;99.90;;;;;;4978332;28;20380;-83
2022/01/14 06:11:58;;;;;;;24.48;9.88;;;-2.20;99.90;;;;;;4995374;28;20034;-83
2022/01/14 06:14:23;;;;;;;34.22;10.75;;;-2.30;99.90;;;;;;4995965;28;20070;-83
2022/01/14 06:16:49;;;;;;;30.50;10.80;;;-2.30;99.90;;;;;;4984625;28;20026;-83
2022/01/14 06:19:15;;;;;;;31.77;10.98;;;-2.30;99.90;;;;;;4996857;28;20081;-83
2022/01/14 06:21:40;;;;;;;32.53;11.02;;;-2.30;99.90;;;;;;4978751;28;20038;-83
2022/01/14 06:24:06;;;;;;;26.27;9.57;;;-2.30;99.90;;;;;;5000372;28;20026;-83
2022/01/14 06:26:34;;;;;;;24.15;9.15;;;-2.30;99.90;;;;;;4978216;28;20100;-83
2022/01/14 06:29:00;;;;;;;27.55;9.52;;;-2.30;99.90;;;;;;4978558;28;20134;-83
2022/01/14 06:31:26;;;;;;;28.27;9.48;;;-2.30;99.90;;;;;;4995086;28;20061;-84
2022/01/14 06:33:52;;;;;;;23.63;9.27;;;-2.30;99.90;;;;;;4995395;28;20057;-84
2022/01/14 06:36:17;;;;;;;23.77;9.68;;;-2.30;99.90;;;;;;4978727;28;20030;-83
2022/01/14 06:38:43;;;;;;;28.98;10.48;;;-2.30;99.90;;;;;;4995788;28;20042;-83
2022/01/14 06:41:12;;;;;;;24.40;8.65;;;-2.40;99.90;;;;;;4994657;28;20104;-83
2022/01/14 06:43:38;;;;;;;25.50;8.30;;;-2.40;99.90;;;;;;4978793;28;20036;-83
2022/01/14 06:46:03;;;;;;;21.95;9.02;;;-2.40;99.90;;;;;;4998797;28;20038;-83
2022/01/14 06:48:29;;;;;;;23.63;9.52;;;-2.40;99.90;;;;;;4998141;28;20038;-83
2022/01/14 06:50:55;;;;;;;18.60;8.63;;;-2.40;99.90;;;;;;5003876;28;20519;-83
2022/01/14 06:53:20;;;;;;;23.30;9.30;;;-2.40;99.90;;;;;;4980790;28;20101;-83
2022/01/14 06:55:46;;;;;;;19.00;8.75;;;-2.40;99.90;;;;;;5003459;28;20332;-83
2022/01/14 06:58:11;;;;;;;25.35;11.02;;;-2.40;99.90;;;;;;4961769;28;20117;-83
2022/01/14 07:00:37;;;;;;;28.42;10.27;;;-2.40;99.90;;;;;;4986310;28;20030;-83
2022/01/14 07:03:03;;;;;;;31.33;11.05;;;-2.40;99.90;;;;;;4987449;28;20515;-84
2022/01/14 07:05:28;;;;;;;35.45;11.32;;;-2.30;99.90;;;;;;4993533;28;20081;-83
2022/01/14 07:07:58;;;;;;;27.80;11.85;;;-2.30;99.90;;;;;;5002010;28;20049;-83
2022/01/14 07:10:23;;;;;;;28.77;11.80;;;-2.30;99.90;;;;;;4989456;28;20030;-83
2022/01/14 07:12:49;;;;;;;30.80;11.18;;;-2.30;99.90;;;;;;4993733;28;20026;-83
2022/01/14 07:15:16;;;;;;;30.77;10.52;;;-2.30;99.90;;;;;;4977057;28;20031;-83
2022/01/14 07:17:43;;;;;;;29.30;10.88;;;-2.30;99.90;;;;;;4993600;28;20034;-83
2022/01/14 07:20:12;;;;;;;31.75;10.90;;;-2.30;99.90;;;;;;4976970;28;20030;-83
2022/01/14 07:22:40;;;;;;;34.50;13.02;;;-2.30;99.90;;;;;;4977806;28;20511;-83
2022/01/14 07:25:07;;;;;;;41.53;12.25;;;-2.30;99.90;;;;;;4994735;28;20513;-83
2022/01/14 07:27:36;;;;;;;38.10;13.40;;;-2.30;99.90;;;;;;4993398;28;20036;-83
2022/01/14 07:30:04;;;;;;;34.22;12.15;;;-2.30;99.90;;;;;;4994346;28;20069;-84
2022/01/14 07:32:30;;;;;;;28.13;12.52;;;-2.30;99.90;;;;;;4997481;28;20026;-83
2022/01/14 07:34:55;;;;;;;33.67;12.90;;;-2.30;99.90;;;;;;4991039;28;20096;-83
2022/01/14 07:37:21;;;;;;;31.25;12.32;;;-2.30;99.90;;;;;;4999225;28;20644;-83
2022/01/14 07:39:47;;;;;;;39.75;14.13;;;-2.30;99.90;;;;;;5001159;28;20046;-83
2022/01/14 07:42:13;;;;;;;38.10;12.35;;;-2.30;99.90;;;;;;4998610;28;20125;-83
2022/01/14 07:44:39;;;;;;;30.50;11.38;;;-2.30;99.90;;;;;;5014450;28;20123;-84
2022/01/14 07:47:05;;;;;;;23.00;10.52;;;-2.30;99.90;;;;;;4996496;28;20518;-83
2022/01/14 07:49:31;;;;;;;34.28;12.00;;;-2.30;99.90;;;;;;4982223;28;20236;-83
2022/01/14 07:51:57;;;;;;;26.52;10.00;;;-2.30;99.90;;;;;;4977851;28;20485;-83
2022/01/14 07:54:25;;;;;;;28.02;10.70;;;-2.30;99.90;;;;;;4994986;28;20729;-83
2022/01/14 07:56:53;;;;;;;29.17;10.13;;;-2.30;99.90;;;;;;4993753;28;20038;-84
2022/01/14 07:59:23;;;;;;;24.98;10.77;;;-2.20;99.90;;;;;;4977601;28;20061;-84
2022/01/14 08:01:50;;;;;;;25.77;9.40;;;-2.20;99.90;;;;;;5012231;28;20083;-83
2022/01/14 08:04:18;;;;;;;23.67;8.85;;;-2.20;99.90;;;;;;4978523;28;20438;-83
2022/01/14 08:06:49;;;;;;;26.17;9.25;;;-2.20;99.90;;;;;;5012245;28;20409;-83
2022/01/14 08:09:16;;;;;;;26.20;8.55;;;-2.10;99.90;;;;;;4998969;28;20022;-83
2022/01/14 08:11:45;;;;;;;24.83;9.13;;;-2.10;99.90;;;;;;4986393;28;20576;-83
2022/01/14 08:14:12;;;;;;;25.88;11.30;;;-2.10;99.90;;;;;;5014623;28;20034;-83
2022/01/14 08:16:38;;;;;;;26.25;8.70;;;-2.00;99.90;;;;;;4997529;28;20562;-83
2022/01/14 08:19:04;;;;;;;20.42;9.02;;;-2.00;99.90;;;;;;4997768;28;20096;-83
2022/01/14 08:21:29;;;;;;;25.58;10.02;;;-1.90;99.90;;;;;;4996910;28;20094;-83
2022/01/14 08:23:55;;;;;;;23.50;9.63;;;-1.90;99.90;;;;;;4964983;28;20038;-83
2022/01/14 08:26:21;;;;;;;25.02;9.43;;;-1.80;99.90;;;;;;4996445;28;20042;-83
2022/01/14 08:28:46;;;;;;;24.25;9.38;;;-1.80;99.90;;;;;;4987445;28;20117;-83
2022/01/14 08:31:13;;;;;;;23.85;9.65;;;-1.80;99.90;;;;;;4980793;28;20073;-84
2022/01/14 08:33:42;;;;;;;23.92;10.52;;;-1.70;99.90;;;;;;4996868;28;20034;-84
2022/01/14 08:36:07;;;;;;;22.50;8.68;;;-1.70;99.90;;;;;;4996246;28;20030;-83
2022/01/14 08:38:33;;;;;;;21.85;8.15;;;-1.60;99.90;;;;;;4997695;28;20126;-83
2022/01/14 08:40:59;;;;;;;24.80;9.07;;;-1.60;99.90;;;;;;4980701;28;20031;-84
2022/01/14 08:43:25;;;;;;;24.92;9.63;;;-1.50;99.90;;;;;;5013103;28;20040;-84
2022/01/14 08:45:50;;;;;;;22.55;9.20;;;-1.50;99.90;;;;;;5016178;28;20030;-83
2022/01/14 08:48:17;;;;;;;22.33;8.50;;;-1.40;99.90;;;;;;4991594;28;20038;-83
2022/01/14 08:50:43;;;;;;;22.60;9.30;;;-1.30;99.90;;;;;;5000131;28;20053;-83
2022/01/14 08:53:13;;;;;;;27.05;9.27;;;-1.30;99.90;;;;;;5012216;28;20037;-83
2022/01/14 08:55:39;;;;;;;23.38;8.77;;;-1.20;99.90;;;;;;4997119;28;20286;-83
2022/01/14 08:58:09;;;;;;;24.10;9.40;;;-1.20;99.90;;;;;;4996550;28;20105;-83
2022/01/14 09:00:37;;;;;;;22.30;8.65;;;-1.10;99.90;;;;;;5004182;28;20018;-83
2022/01/14 09:03:03;;;;;;;23.13;8.80;;;-1.10;99.90;;;;;;4983747;28;20026;-83
2022/01/14 09:05:29;;;;;;;27.45;9.57;;;-1.00;99.90;;;;;;4981381;28;20049;-83
2022/01/14 09:07:55;;;;;;;28.52;10.25;;;-0.90;99.90;;;;;;4998572;28;20022;-83
2022/01/14 09:10:20;;;;;;;26.33;10.23;;;-0.90;99.90;;;;;;4998032;28;20026;-83
2022/01/14 09:12:46;;;;;;;26.30;8.90;;;-0.80;99.90;;;;;;4997133;28;20026;-83
2022/01/14 09:15:12;;;;;;;28.63;10.18;;;-0.80;99.90;;;;;;4981166;28;20078;-83
2022/01/14 09:17:38;;;;;;;20.60;8.82;;;-0.70;99.90;;;;;;4981303;28;20027;-83
2022/01/14 09:20:05;;;;;;;25.15;10.23;;;-0.70;99.90;;;;;;4997229;28;20030;-84
2022/01/14 09:22:32;;;;;;;28.98;11.45;;;-0.60;99.90;;;;;;4965249;28;20054;-83
2022/01/14 09:24:59;;;;;;;22.52;9.35;;;-0.60;99.90;;;;;;4996939;28;20030;-83
2022/01/14 09:27:26;;;;;;;26.88;10.20;;;-0.50;99.90;;;;;;4965580;28;20038;-83
2022/01/14 09:29:54;;;;;;;26.73;11.80;;;-0.50;99.90;;;;;;5016994;28;20028;-83
2022/01/14 09:32:20;;;;;;;27.40;11.48;;;-0.40;99.90;;;;;;5016411;28;20029;-83
2022/01/14 09:34:45;;;;;;;26.88;12.05;;;-0.40;99.90;;;;;;4999384;28;20048;-83
2022/01/14 09:37:11;;;;;;;21.85;9.93;;;-0.30;99.90;;;;;;4997935;28;20030;-83
2022/01/14 09:39:40;;;;;;;28.48;11.23;;;-0.30;99.90;;;;;;5007197;28;20061;-83
2022/01/14 09:42:06;;;;;;;27.35;11.82;;;-0.30;99.90;;;;;;4997283;28;20038;-83
2022/01/14 09:44:31;;;;;;;32.75;11.57;;;-0.20;99.90;;;;;;4975467;28;20033;-83
2022/01/14 09:46:57;;;;;;;29.73;11.45;;;-0.20;99.90;;;;;;4999219;28;20486;-84
2022/01/14 09:49:23;;;;;;;32.45;12.20;;;-0.10;99.90;;;;;;4984038;28;20038;-83
2022/01/14 09:51:48;;;;;;;31.55;12.43;;;-0.10;99.90;;;;;;5014232;28;20026;-83
2022/01/14 09:54:14;;;;;;;29.10;11.98;;;0.00;99.90;;;;;;5000176;28;20505;-83
2022/01/14 09:56:41;;;;;;;27.88;12.02;;;0.00;99.90;;;;;;4982959;28;20033;-83
2022/01/14 09:59:07;;;;;;;33.92;11.88;;;0.10;99.90;;;;;;5015679;28;20052;-83
2022/01/14 10:01:41;;;;;;;24.58;10.73;;;0.10;99.90;;;;;;4981705;28;20030;-83
2022/01/14 10:04:16;;;;;;;26.98;10.88;;;0.20;99.90;;;;;;4979790;28;20121;-83
2022/01/14 10:06:45;;;;;;;35.20;13.45;;;0.30;99.90;;;;;;4979705;28;20031;-83
2022/01/14 10:09:20;;;;;;;34.95;13.50;;;0.30;99.90;;;;;;4979888;28;20078;-83
2022/01/14 10:12:18;;;;;;;30.98;12.07;;;0.40;99.90;;;;;;4979812;28;20022;-83
2022/01/14 10:14:57;;;;;;;34.03;12.25;;;0.40;99.90;;;;;;4937870;28;20042;-83
2022/01/14 10:17:24;;;;;;;36.08;12.95;;;0.50;99.90;;;;;;5007870;28;20058;-83
2022/01/14 10:19:50;;;;;;;37.40;15.25;;;0.60;99.90;;;;;;4983582;28;20030;-83
2022/01/14 10:22:26;;;;;;;36.33;13.82;;;0.60;99.90;;;;;;5017034;28;20466;-83
2022/01/14 10:24:57;;;;;;;29.77;13.35;;;0.70;99.90;;;;;;5002397;28;20663;-83
2022/01/14 10:27:37;;;;;;;35.83;15.52;;;0.70;99.90;;;;;;4995506;28;20034;-85
2022/01/14 10:30:21;;;;;;;46.47;16.42;;;0.80;99.90;;;;;;4992099;28;20022;-85
2022/01/14 10:33:05;;;;;;;30.77;14.27;;;0.80;99.90;;;;;;4991449;28;20394;-85
2022/01/14 10:35:42;;;;;;;35.58;14.05;;;0.90;99.90;;;;;;4970976;28;20122;-85
2022/01/14 10:38:12;;;;;;;38.03;15.43;;;0.90;99.90;;;;;;4971892;28;20567;-85
2022/01/14 10:40:44;;;;;;;39.00;15.70;;;1.00;99.90;;;;;;4970970;28;20031;-85
2022/01/14 10:43:15;;;;;;;40.22;15.80;;;1.10;99.90;;;;;;4971266;28;20031;-85
2022/01/14 10:45:42;;;;;;;;;;;1.10;99.90;;;;;;5004362;28;20403;-85
2022/01/14 10:48:29;;;;;;;39.97;15.93;;;1.20;99.90;;;;;;4989995;28;19914;-85
2022/01/14 10:51:10;;;;;;;34.75;14.63;;;1.20;99.90;;;;;;4990284;28;20037;-85
2022/01/14 10:53:38;;;;;;;42.17;16.35;;;1.30;99.90;;;;;;4991168;28;20028;-85
2022/01/14 10:56:13;;;;;;;35.92;14.63;;;1.40;99.90;;;;;;5006042;28;20044;-85
2022/01/14 10:58:41;;;;;;;28.85;13.02;;;1.40;99.90;;;;;;4993240;28;20091;-85
2022/01/14 11:01:11;;;;;;;35.25;14.05;;;1.50;99.90;;;;;;4993456;28;20191;-85
2022/01/14 11:03:52;;;;;;;36.45;15.30;;;1.50;99.90;;;;;;5009282;28;20502;-85
2022/01/14 11:06:25;;;;;;;32.00;15.50;;;1.60;99.90;;;;;;4993010;28;20095;-85
2022/01/14 11:08:56;;;;;;;41.95;15.32;;;1.70;99.90;;;;;;4994416;28;20027;-85
2022/01/14 11:11:23;;;;;;;37.63;14.38;;;1.80;99.90;;;;;;4990820;28;20647;-85
2022/01/14 11:13:48;;;;;;;38.70;15.50;;;1.90;99.90;;;;;;4977417;28;20030;-85
2022/01/14 11:16:14;;;;;;;35.08;14.15;;;2.00;99.90;;;;;;4992219;28;20361;-85
2022/01/14 11:18:40;;;;;;;29.73;11.95;;;2.00;99.90;;;;;;5009315;28;20033;-85
2022/01/14 11:23:51;;;;;;;26.33;9.55;;;2.20;99.90;;;;;;5009929;28;20505;-85
2022/01/14 11:26:20;;;;;;;23.13;8.60;;;2.30;99.90;;;;;;4992116;28;20038;-85
2022/01/14 11:28:46;;;;;;;21.05;8.07;;;2.40;99.90;;;;;;4994662;28;20143;-85
2022/01/14 11:31:36;;;;;;;21.95;8.90;;;2.40;99.90;;;;;;4990602;28;20088;-85
2022/01/14 11:34:05;;;;;;;16.65;7.60;;;2.60;99.90;;;;;;4989530;28;20492;-85
2022/01/14 11:36:51;;;;;;;17.77;7.97;;;2.60;99.90;;;;;;4972881;28;20038;-85
2022/01/14 11:39:22;;;;;;;20.88;8.75;;;2.70;99.90;;;;;;4988593;28;20061;-85
2022/01/14 11:41:55;;;;;;;25.40;9.73;;;2.70;99.90;;;;;;5010172;28;20082;-85
2022/01/14 11:45:06;;;;;;;25.92;11.20;;;2.90;99.90;;;;;;5008477;28;20039;-85
2022/01/14 11:47:40;;;;;;;24.40;11.32;;;2.90;99.90;;;;;;5007011;28;20104;-85
2022/01/14 11:50:27;;;;;;;23.98;11.00;;;2.90;99.90;;;;;;5009006;28;20506;-85
2022/01/14 11:52:53;;;;;;;26.88;11.63;;;2.90;99.90;;;;;;5001588;28;20168;-85
2022/01/14 11:55:21;;;;;;;25.35;10.70;;;3.00;99.90;;;;;;5002291;28;20124;-85
2022/01/14 11:57:55;;;;;;;24.40;10.23;;;3.00;99.90;;;;;;4991985;28;20438;-85
2022/01/14 12:00:27;;;;;;;23.98;9.13;;;3.10;99.90;;;;;;4989430;28;20303;-85
2022/01/14 12:03:17;;;;;;;18.48;8.68;;;3.10;99.90;;;;;;4988989;28;20026;-85
2022/01/14 12:06:07;;;;;;;16.20;7.97;;;3.20;99.90;;;;;;4987985;28;20129;-85
2022/01/14 12:08:39;;;;;;;20.05;8.43;;;3.30;99.90;;;;;;4969581;28;20085;-85
2022/01/14 12:11:05;;;;;;;20.02;7.65;;;3.40;99.90;;;;;;4969509;28;20038;-85
2022/01/14 12:16:18;;;;;;;19.63;9.02;;;3.70;99.90;;;;;;4970970;28;20451;-85
2022/01/14 12:19:02;;;;;;;18.75;8.30;;;3.70;99.90;;;;;;5008641;28;20504;-85
2022/01/14 12:21:43;;;;;;;23.33;8.30;;;3.80;99.90;;;;;;5008462;28;20482;-85
2022/01/14 12:24:15;;;;;;;19.83;8.13;;;3.80;99.90;;;;;;5008316;28;20395;-85
2022/01/14 12:27:01;;;;;;;21.35;9.82;;;3.90;99.90;;;;;;4996444;28;20052;-85
2022/01/14 12:29:35;;;;;;;20.80;9.82;;;4.00;99.90;;;;;;4997882;28;20053;-85
2022/01/14 12:32:13;;;;;;;21.27;10.02;;;4.00;99.90;;;;;;5009686;28;20034;-85
2022/01/14 12:34:55;;;;;;;20.02;9.77;;;4.00;99.90;;;;;;5001546;28;20042;-84
2022/01/14 12:37:28;;;;;;;19.45;8.45;;;4.10;99.90;;;;;;5000431;28;20298;-84
2022/01/14 12:39:57;;;;;;;22.35;8.95;;;4.10;99.90;;;;;;5014410;28;20037;-84
2022/01/14 12:42:24;;;;;;;15.15;8.25;;;4.20;99.90;;;;;;5014168;28;20034;-84
2022/01/14 12:44:52;;;;;;;19.33;9.05;;;4.30;99.90;;;;;;5010121;28;20026;-84
2022/01/14 12:47:33;;;;;;;18.05;8.73;;;4.40;99.90;;;;;;4978331;28;20431;-83
2022/01/14 12:50:09;;;;;;;18.98;9.48;;;4.40;99.90;;;;;;4978977;28;20054;-83
2022/01/14 12:52:49;;;;;;;21.15;8.98;;;4.50;99.90;;;;;;4978409;28;20044;-83
2022/01/14 12:55:16;;;;;;;18.92;8.63;;;4.50;99.90;;;;;;4994360;28;20109;-83
2022/01/14 12:57:42;;;;;;;20.65;8.65;;;4.60;99.90;;;;;;4977713;28;20586;-83
2022/01/14 13:00:12;;;;;;;20.83;9.15;;;4.70;99.90;;;;;;4996845;28;20065;-84
2022/01/14 13:02:40;;;;;;;19.95;8.52;;;4.70;99.90;;;;;;4998146;28;20034;-83
2022/01/14 13:05:15;;;;;;;19.63;8.45;;;4.80;99.90;;;;;;5000355;28;20509;-83
2022/01/14 13:07:43;;;;;;;18.27;8.68;;;4.90;99.90;;;;;;4992206;28;20026;-83
2022/01/14 13:10:10;;;;;;;18.42;8.45;;;4.90;99.90;;;;;;5015100;28;20033;-84
2022/01/14 13:12:40;;;;;;;16.50;8.32;;;5.00;99.90;;;;;;5013025;28;20027;-83
2022/01/14 13:15:09;;;;;;;15.93;7.97;;;5.00;99.90;;;;;;4998010;28;20030;-83